createdAt,value
2023-05-23T00:02:18.449Z,97990.06
2023-05-23T00:04:47.136Z,97990.28
2023-05-23T00:07:13.726Z,97985.78
2023-05-23T00:09:40.375Z,97972.28
2023-05-23T00:12:07.128Z,97973.75
2023-05-23T00:14:35.346Z,97977.25
2023-05-23T00:17:02.062Z,97985.69
2023-05-23T00:19:28.682Z,97967.84
2023-05-23T00:21:58.693Z,97967.66
2023-05-23T00:24:25.870Z,97962.19
2023-05-23T00:26:52.565Z,97975.19
2023-05-23T00:29:19.698Z,97982.22
2023-05-23T00:31:49.008Z,97989.03
2023-05-23T00:34:18.851Z,97987.63
2023-05-23T00:36:48.459Z,98001.41
2023-05-23T00:39:19.799Z,97995.63
2023-05-23T00:41:52.912Z,97985.34
2023-05-23T00:44:21.368Z,97984.09
2023-05-23T00:46:56.390Z,97972.56
2023-05-23T00:49:23.919Z,97976.72
2023-05-23T00:51:52.005Z,97986.75
2023-05-23T00:54:29.590Z,97992.69
2023-05-23T00:56:56.283Z,97966.78
2023-05-23T00:59:26.481Z,97986.72
2023-05-23T01:01:55.922Z,97973.13
2023-05-23T01:04:26.595Z,97986.03
2023-05-23T01:06:54.988Z,97989.34
2023-05-23T01:09:23.552Z,97981.44
2023-05-23T01:11:53.093Z,97979.00
2023-05-23T01:14:42.355Z,97975.78
2023-05-23T01:17:21.226Z,97962.00
2023-05-23T01:20:05.984Z,97961.47
2023-05-23T01:22:35.804Z,97977.25
2023-05-23T01:25:24.502Z,97981.25
2023-05-23T01:28:01.200Z,97962.94
2023-05-23T01:30:32.286Z,97985.81
2023-05-23T01:32:59.563Z,97991.59
2023-05-23T01:35:27.541Z,97990.16
2023-05-23T01:37:57.526Z,97999.88
2023-05-23T01:40:25.850Z,98011.41
2023-05-23T01:42:59.900Z,98002.72
2023-05-23T01:45:28.250Z,98010.13
2023-05-23T01:47:56.382Z,97997.34
2023-05-23T01:50:24.587Z,97989.94
2023-05-23T01:52:54.832Z,97981.69
2023-05-23T01:55:26.638Z,97992.81
2023-05-23T01:57:57.936Z,97999.22
2023-05-23T02:00:25.117Z,97983.19
2023-05-23T02:02:54.575Z,97972.72
2023-05-23T02:05:23.793Z,97964.06
2023-05-23T02:07:50.450Z,97986.69
2023-05-23T02:10:17.065Z,97979.47
2023-05-23T02:12:43.676Z,97990.75
2023-05-23T02:15:10.705Z,97978.22
2023-05-23T02:17:38.811Z,97969.56
2023-05-23T02:20:06.811Z,97985.41
2023-05-23T02:22:33.452Z,97981.28
2023-05-23T02:24:59.981Z,97972.00
2023-05-23T02:27:26.547Z,97985.56
2023-05-23T02:29:55.297Z,97984.19
2023-05-23T02:32:21.826Z,97979.69
2023-05-23T02:34:50.468Z,97982.97
2023-05-23T02:37:17.052Z,97979.31
2023-05-23T02:39:44.017Z,97992.50
2023-05-23T02:42:10.585Z,97989.63
2023-05-23T02:44:37.150Z,98001.97
2023-05-23T02:47:03.796Z,97980.81
2023-05-23T02:49:30.405Z,98000.31
2023-05-23T02:51:57.009Z,97981.03
2023-05-23T02:54:23.604Z,97998.50
2023-05-23T02:56:52.488Z,97996.06
2023-05-23T02:59:19.125Z,97989.44
2023-05-23T03:01:45.745Z,97978.97
2023-05-23T03:04:13.749Z,97992.53
2023-05-23T03:06:42.146Z,98008.59
2023-05-23T03:09:09.508Z,97995.63
2023-05-23T03:11:37.181Z,98005.69
2023-05-23T03:14:03.712Z,98004.25
2023-05-23T03:16:30.275Z,97996.28
2023-05-23T03:19:00.765Z,97984.97
2023-05-23T03:21:32.896Z,97999.56
2023-05-23T03:23:59.384Z,97978.19
2023-05-23T03:26:28.426Z,98001.25
2023-05-23T03:28:54.936Z,97991.56
2023-05-23T03:31:21.576Z,97976.53
2023-05-23T03:33:48.131Z,97992.56
2023-05-23T03:36:14.743Z,97999.56
2023-05-23T03:38:41.827Z,97985.38
2023-05-23T03:41:08.497Z,97993.19
2023-05-23T03:43:34.994Z,97993.22
2023-05-23T03:46:01.670Z,97984.34
2023-05-23T03:48:31.275Z,97986.41
2023-05-23T03:51:01.200Z,97985.34
2023-05-23T03:53:29.864Z,97972.00
2023-05-23T03:55:56.354Z,97982.25
2023-05-23T03:58:22.881Z,97986.81
2023-05-23T04:00:49.492Z,97981.47
2023-05-23T04:03:17.615Z,97974.06
2023-05-23T04:05:44.503Z,97972.22
2023-05-23T04:08:11.209Z,97976.13
2023-05-23T04:10:37.712Z,97960.69
2023-05-23T04:13:04.628Z,97967.91
2023-05-23T04:15:34.323Z,97975.72
2023-05-23T04:18:04.066Z,97979.00
2023-05-23T04:20:33.563Z,97982.09
2023-05-23T04:23:03.106Z,97974.91
2023-05-23T04:25:31.074Z,97978.59
2023-05-23T04:27:58.129Z,97955.38
2023-05-23T04:30:24.686Z,97965.03
2023-05-23T04:32:51.194Z,97979.22
2023-05-23T04:35:17.734Z,97976.97
2023-05-23T04:37:45.636Z,97974.88
2023-05-23T04:40:13.580Z,97973.66
2023-05-23T04:42:42.389Z,97976.13
2023-05-23T04:45:09.995Z,97973.28
2023-05-23T04:47:37.581Z,97981.06
2023-05-23T04:50:05.505Z,97980.88
2023-05-23T04:52:34.097Z,97975.50
2023-05-23T04:55:04.227Z,97987.44
2023-05-23T04:57:34.163Z,98004.97
2023-05-23T05:00:01.782Z,98010.91
2023-05-23T05:02:28.361Z,98001.84
2023-05-23T05:04:54.883Z,97984.34
2023-05-23T05:07:21.431Z,98003.72
2023-05-23T05:09:47.987Z,97998.78
2023-05-23T05:12:14.469Z,97996.09
2023-05-23T05:14:41.182Z,97990.34
2023-05-23T05:17:08.109Z,97988.25
2023-05-23T05:19:34.760Z,97984.97
2023-05-23T05:22:04.418Z,97999.19
2023-05-23T05:24:33.873Z,97986.63
2023-05-23T05:27:04.355Z,97996.50
2023-05-23T05:29:33.900Z,98013.59
2023-05-23T05:32:03.514Z,98005.56
2023-05-23T05:34:33.437Z,98005.97
2023-05-23T05:37:06.193Z,98003.50
2023-05-23T05:39:32.686Z,98022.03
2023-05-23T05:42:01.626Z,98013.19
2023-05-23T05:44:28.138Z,98026.13
2023-05-23T05:46:55.280Z,98027.16
2023-05-23T05:49:22.630Z,98029.41
2023-05-23T05:51:49.299Z,98032.09
2023-05-23T05:54:18.256Z,98029.84
2023-05-23T05:56:46.981Z,98028.81
2023-05-23T05:59:13.558Z,98036.81
2023-05-23T06:01:40.917Z,98019.34
2023-05-23T06:04:08.000Z,98021.81
2023-05-23T06:06:34.676Z,98012.97
2023-05-23T06:09:01.752Z,98023.84
2023-05-23T06:11:28.283Z,98023.84
2023-05-23T06:13:54.917Z,98037.84
2023-05-23T06:16:21.617Z,98044.03
2023-05-23T06:18:48.186Z,98026.75
2023-05-23T06:21:14.756Z,98037.44
2023-05-23T06:23:41.433Z,98041.13
2023-05-23T06:26:10.812Z,98031.91
2023-05-23T06:28:40.358Z,98046.91
2023-05-23T06:31:07.067Z,98044.22
2023-05-23T06:33:33.599Z,98027.34
2023-05-23T06:36:03.259Z,98048.97
2023-05-23T06:38:33.756Z,98032.09
2023-05-23T06:41:04.364Z,98033.13
2023-05-23T06:43:31.733Z,98052.06
2023-05-23T06:46:04.559Z,98043.22
2023-05-23T06:48:34.165Z,98037.44
2023-05-23T06:51:03.900Z,98055.75
2023-05-23T06:53:35.538Z,98048.81
2023-05-23T06:56:02.093Z,98048.78
2023-05-23T06:58:31.737Z,98047.97
2023-05-23T07:01:02.947Z,98041.16
2023-05-23T07:03:31.570Z,98051.03
2023-05-23T07:05:58.544Z,98061.56
2023-05-23T07:08:26.196Z,98050.22
2023-05-23T07:10:53.004Z,98062.16
2023-05-23T07:13:19.543Z,98056.41
2023-05-23T07:15:46.543Z,98055.56
2023-05-23T07:18:13.708Z,98060.31
2023-05-23T07:20:40.828Z,98058.66
2023-05-23T07:23:07.851Z,98064.00
2023-05-23T07:25:34.630Z,98056.41
2023-05-23T07:28:04.831Z,98058.66
2023-05-23T07:30:33.350Z,98058.06
2023-05-23T07:33:03.113Z,98070.19
2023-05-23T07:35:33.772Z,98069.78
2023-05-23T07:38:05.352Z,98075.53
2023-05-23T07:40:32.001Z,98061.34
2023-05-23T07:43:00.816Z,98068.94
2023-05-23T07:45:27.319Z,98074.31
2023-05-23T07:47:54.019Z,98078.63
2023-05-23T07:50:20.613Z,98078.44
2023-05-23T07:52:47.110Z,98074.53
2023-05-23T07:55:13.647Z,98068.94
2023-05-23T07:57:40.119Z,98081.72
2023-05-23T08:00:10.034Z,98084.41
2023-05-23T08:02:36.676Z,98087.28
2023-05-23T08:05:03.299Z,98068.34
2023-05-23T08:07:32.943Z,98082.75
2023-05-23T08:10:00.189Z,98071.81
2023-05-23T08:12:26.844Z,98066.25
2023-05-23T08:14:53.411Z,98076.53
2023-05-23T08:17:20.073Z,98069.19
2023-05-23T08:19:49.056Z,98076.16
2023-05-23T08:22:15.791Z,98083.16
2023-05-23T08:24:42.322Z,98084.81
2023-05-23T08:27:09.480Z,98083.56
2023-05-23T08:29:37.345Z,98070.19
2023-05-23T08:32:04.196Z,98087.69
2023-05-23T08:34:33.918Z,98095.50
2023-05-23T08:37:03.522Z,98091.59
2023-05-23T08:39:32.962Z,98086.03
2023-05-23T08:42:03.228Z,98073.09
2023-05-23T08:44:34.365Z,98086.66
2023-05-23T08:47:07.794Z,98088.13
2023-05-23T08:49:34.840Z,98078.22
2023-05-23T08:52:05.246Z,98083.75
2023-05-23T08:54:32.721Z,98094.25
2023-05-23T08:57:02.432Z,98088.91
2023-05-23T08:59:32.603Z,98097.75
2023-05-23T09:02:05.012Z,98087.88
2023-05-23T09:04:34.269Z,98092.19
2023-05-23T09:07:04.370Z,98081.47
2023-05-23T09:09:34.217Z,98095.66
2023-05-23T09:12:03.596Z,98093.56
2023-05-23T09:14:33.618Z,98087.56
2023-05-23T09:17:04.515Z,98103.03
2023-05-23T09:19:31.779Z,98097.91
2023-05-23T09:21:59.430Z,98100.19
2023-05-23T09:24:34.181Z,98109.69
2023-05-23T09:27:05.967Z,98091.78
2023-05-23T09:29:32.585Z,98106.78
2023-05-23T09:32:18.874Z,98110.91
2023-05-23T09:35:05.938Z,98119.59
2023-05-23T09:37:45.848Z,98119.38
2023-05-23T09:40:14.434Z,98116.31
2023-05-23T09:42:45.785Z,98111.97
2023-05-23T09:45:17.093Z,98112.81
2023-05-23T09:47:53.426Z,98121.66
2023-05-23T09:50:21.282Z,98111.78
2023-05-23T09:52:48.225Z,98117.34
2023-05-23T09:55:15.257Z,98113.66
2023-05-23T09:57:43.597Z,98122.09
2023-05-23T10:00:11.468Z,98112.00
2023-05-23T10:03:13.479Z,98117.75
2023-05-23T10:05:47.745Z,98115.69
2023-05-23T10:08:19.152Z,98110.94
2023-05-23T10:11:14.981Z,98116.50
2023-05-23T10:13:45.816Z,98114.03
2023-05-23T10:16:19.171Z,98126.38
2023-05-23T10:18:53.101Z,98135.06
2023-05-23T10:21:24.859Z,98127.44
2023-05-23T10:23:51.897Z,98121.44
2023-05-23T10:26:18.664Z,98126.81
2023-05-23T10:28:46.735Z,98113.44
2023-05-23T10:31:13.282Z,98114.25
2023-05-23T10:33:49.572Z,98128.66
2023-05-23T10:36:32.768Z,98131.94
2023-05-23T10:39:09.544Z,98124.94
2023-05-23T10:41:47.481Z,98129.88
2023-05-23T10:44:14.001Z,98129.22
2023-05-23T10:47:00.406Z,98125.69
2023-05-23T10:49:44.836Z,98114.97
2023-05-23T10:52:14.193Z,98125.41
2023-05-23T10:54:51.722Z,98122.88
2023-05-23T10:57:21.106Z,98111.50
2023-05-23T10:59:51.038Z,98123.03
2023-05-23T11:02:27.411Z,98123.44
2023-05-23T11:05:15.728Z,98123.44
2023-05-23T11:07:42.720Z,98126.75
2023-05-23T11:10:16.790Z,98105.56
2023-05-23T11:12:46.409Z,98114.00
2023-05-23T11:15:20.661Z,98130.78
2023-05-23T11:17:52.837Z,98122.16
2023-05-23T11:20:23.513Z,98116.00
2023-05-23T11:22:55.736Z,98121.53
2023-05-23T11:25:40.996Z,98115.16
2023-05-23T11:28:07.762Z,98122.38
2023-05-23T11:30:39.502Z,98124.44
2023-05-23T11:33:14.123Z,98116.84
2023-05-23T11:35:48.805Z,98117.69
2023-05-23T11:38:19.148Z,98116.25
2023-05-23T11:40:48.717Z,98120.56
2023-05-23T11:43:18.303Z,98129.22
2023-05-23T11:45:46.970Z,98125.13
2023-05-23T11:48:16.385Z,98123.28
2023-05-23T11:50:47.349Z,98132.75
2023-05-23T11:53:17.530Z,98110.31
2023-05-23T11:55:53.294Z,98133.97
2023-05-23T11:58:27.020Z,98131.88
2023-05-23T12:01:06.462Z,98119.94
2023-05-23T12:03:34.686Z,98130.41
2023-05-23T12:06:04.634Z,98132.28
2023-05-23T12:08:34.055Z,98120.38
2023-05-23T12:11:03.889Z,98131.09
2023-05-23T12:13:33.573Z,98126.53
2023-05-23T12:16:04.552Z,98122.81
2023-05-23T12:18:32.757Z,98130.63
2023-05-23T12:21:08.414Z,98121.78
2023-05-23T12:23:35.840Z,98107.75
2023-05-23T12:26:06.902Z,98110.94
2023-05-23T12:28:38.833Z,98106.06
2023-05-23T12:31:22.006Z,98106.69
2023-05-23T12:33:50.077Z,98108.31
2023-05-23T12:36:29.583Z,98101.22
2023-05-23T12:39:02.901Z,98107.69
2023-05-23T12:41:33.857Z,98108.72
2023-05-23T12:44:04.705Z,98107.94
2023-05-23T12:46:31.522Z,98111.44
2023-05-23T12:49:01.313Z,98101.13
2023-05-23T12:51:27.865Z,98097.50
2023-05-23T12:53:54.789Z,98097.78
2023-05-23T12:56:22.498Z,98089.66
2023-05-23T12:58:49.095Z,98099.06
2023-05-23T13:01:15.757Z,98096.69
2023-05-23T13:03:42.361Z,98098.09
2023-05-23T13:06:09.528Z,98110.53
2023-05-23T13:08:36.241Z,98099.69
2023-05-23T13:11:02.964Z,98109.94
2023-05-23T13:13:34.603Z,98108.91
2023-05-23T13:16:01.661Z,98114.03
2023-05-23T13:18:31.364Z,98113.44
2023-05-23T13:20:58.042Z,98117.19
2023-05-23T13:23:25.815Z,98110.59
2023-05-23T13:25:53.068Z,98116.13
2023-05-23T13:28:19.634Z,98106.38
2023-05-23T13:30:47.278Z,98094.22
2023-05-23T13:33:14.193Z,98107.94
2023-05-23T13:35:41.198Z,98101.06
2023-05-23T13:38:08.161Z,98090.28
2023-05-23T13:40:34.759Z,98087.50
2023-05-23T13:43:01.580Z,98085.69
2023-05-23T13:45:29.610Z,98081.25
2023-05-23T13:47:56.433Z,98085.34
2023-05-23T13:50:23.628Z,98087.97
2023-05-23T13:52:50.184Z,98078.34
2023-05-23T13:55:17.494Z,98090.97
2023-05-23T13:57:44.177Z,98081.22
2023-05-23T14:00:11.591Z,98084.47
2023-05-23T14:02:38.611Z,98070.75
2023-05-23T14:05:07.241Z,98066.50
2023-05-23T14:07:33.993Z,98079.41
2023-05-23T14:10:05.129Z,98079.75
2023-05-23T14:12:31.772Z,98062.34
2023-05-23T14:14:58.407Z,98066.75
2023-05-23T14:17:25.383Z,98068.56
2023-05-23T14:19:52.015Z,98054.09
2023-05-23T14:22:18.512Z,98053.47
2023-05-23T14:24:45.022Z,98066.97
2023-05-23T14:27:11.655Z,98061.00
2023-05-23T14:29:38.798Z,98066.97
2023-05-23T14:32:05.875Z,98048.31
2023-05-23T14:34:32.629Z,98051.38
2023-05-23T14:37:01.754Z,98057.94
2023-05-23T14:39:29.365Z,98053.69
2023-05-23T14:41:56.707Z,98056.31
2023-05-23T14:44:23.403Z,98048.19
2023-05-23T14:46:50.358Z,98053.78
2023-05-23T14:49:20.004Z,98041.97
2023-05-23T14:51:51.217Z,98045.19
2023-05-23T14:54:19.177Z,98039.13
2023-05-23T14:56:46.150Z,98031.78
2023-05-23T14:59:12.932Z,98030.25
2023-05-23T15:01:40.684Z,98033.19
2023-05-23T15:04:09.599Z,98023.28
2023-05-23T15:06:37.960Z,98031.31
2023-05-23T15:09:04.908Z,98028.97
2023-05-23T15:11:34.877Z,98018.13
2023-05-23T15:14:04.684Z,98006.63
2023-05-23T15:16:36.824Z,98012.94
2023-05-23T15:19:04.870Z,98019.16
2023-05-23T15:21:34.954Z,98007.75
2023-05-23T15:24:03.436Z,98013.28
2023-05-23T15:26:30.074Z,98015.97
2023-05-23T15:28:57.177Z,98014.44
2023-05-23T15:31:23.760Z,98015.56
2023-05-23T15:33:50.344Z,98011.84
2023-05-23T15:36:16.896Z,98007.41
2023-05-23T15:38:43.952Z,98000.63
2023-05-23T15:41:11.294Z,98015.41
2023-05-23T15:43:37.887Z,98006.66
2023-05-23T15:46:07.622Z,98008.28
2023-05-23T15:48:37.418Z,98000.91
2023-05-23T15:51:07.084Z,97987.41
2023-05-23T15:53:47.861Z,98006.22
2023-05-23T15:56:23.461Z,98002.56
2023-05-23T15:58:50.037Z,97994.00
2023-05-23T16:01:16.553Z,97990.41
2023-05-23T16:03:43.111Z,97997.41
2023-05-23T16:06:09.598Z,97996.56
2023-05-23T16:08:36.140Z,97996.56
2023-05-23T16:11:09.805Z,97987.13
2023-05-23T16:13:36.372Z,97989.31
2023-05-23T16:16:10.586Z,97970.91
2023-05-23T16:18:37.191Z,97974.56
2023-05-23T16:21:06.961Z,97980.69
2023-05-23T16:23:35.688Z,97991.81
2023-05-23T16:26:02.192Z,97980.63
2023-05-23T16:28:29.424Z,97990.91
2023-05-23T16:30:56.691Z,97988.28
2023-05-23T16:33:23.241Z,97982.28
2023-05-23T16:35:49.814Z,97978.50
2023-05-23T16:38:16.383Z,97992.03
2023-05-23T16:40:44.375Z,97976.25
2023-05-23T16:43:12.326Z,97985.16
2023-05-23T16:45:41.637Z,97983.88
2023-05-23T16:48:08.577Z,97982.47
2023-05-23T16:50:37.651Z,97970.88
2023-05-23T16:53:04.176Z,97967.28
2023-05-23T16:55:30.718Z,97979.97
2023-05-23T16:58:09.900Z,97977.44
2023-05-23T17:00:39.675Z,97963.63
2023-05-23T17:03:08.753Z,97978.25
2023-05-23T17:05:36.237Z,97984.13
2023-05-23T17:08:03.117Z,97970.28
2023-05-23T17:10:29.633Z,97976.97
2023-05-23T17:12:56.182Z,97972.72
2023-05-23T17:15:22.792Z,97975.88
2023-05-23T17:17:49.456Z,97966.91
2023-05-23T17:20:15.952Z,97979.06
2023-05-23T17:22:42.530Z,97981.38
2023-05-23T17:25:09.341Z,97970.47
2023-05-23T17:27:38.262Z,97989.88
2023-05-23T17:30:07.628Z,97983.38
2023-05-23T17:32:35.146Z,97996.47
2023-05-23T17:35:02.141Z,97984.88
2023-05-23T17:37:28.705Z,97999.81
2023-05-23T17:39:57.699Z,97997.66
2023-05-23T17:42:24.922Z,97998.53
2023-05-23T17:44:51.476Z,97983.53
2023-05-23T17:47:18.477Z,98005.56
2023-05-23T17:49:45.016Z,98008.41
2023-05-23T17:52:14.781Z,97998.44
2023-05-23T17:54:41.978Z,98003.34
2023-05-23T17:57:11.295Z,97999.13
2023-05-23T18:03:38.334Z,98011.44
2023-05-23T18:06:05.119Z,98013.53
2023-05-23T18:08:31.678Z,98028.84
2023-05-23T18:10:58.214Z,98017.75
2023-05-23T18:13:24.771Z,98032.53
2023-05-23T18:15:51.279Z,98030.25
2023-05-23T18:18:18.288Z,98031.28
2023-05-23T18:20:45.261Z,98037.25
2023-05-23T18:23:12.052Z,98040.97
2023-05-23T18:25:41.879Z,98042.03
2023-05-23T18:28:11.741Z,98042.09
2023-05-23T18:30:40.897Z,98049.78
2023-05-23T18:33:10.364Z,98049.00
2023-05-23T18:35:37.165Z,98061.59
2023-05-23T18:38:37.220Z,98044.75
2023-05-23T18:41:29.432Z,98045.19
2023-05-23T18:50:48.031Z,98056.97
2023-05-23T18:53:19.095Z,98053.69
2023-05-23T18:55:45.881Z,98073.03
2023-05-23T18:58:12.582Z,98080.06
2023-05-23T19:00:44.505Z,98054.53
2023-05-23T19:03:11.693Z,98083.38
2023-05-23T19:05:40.683Z,98082.97
2023-05-23T19:08:07.251Z,98082.56
2023-05-23T19:10:33.744Z,98093.66
2023-05-23T19:13:01.162Z,98082.75
2023-05-23T19:15:27.800Z,98097.56
2023-05-23T19:17:54.299Z,98108.03
2023-05-23T19:20:20.939Z,98098.53
2023-05-23T19:23:38.101Z,98103.69
2023-05-23T19:26:04.748Z,98119.94
2023-05-23T19:28:31.290Z,98108.22
2023-05-23T19:30:57.874Z,98111.09
2023-05-23T19:33:24.408Z,98104.53
2023-05-23T19:35:51.648Z,98126.13
2023-05-23T19:38:18.664Z,98123.84
2023-05-23T19:40:47.027Z,98131.47
2023-05-23T19:43:13.568Z,98141.75
2023-05-23T19:45:43.250Z,98137.66
2023-05-23T19:48:12.561Z,98143.59
2023-05-23T19:50:41.082Z,98135.97
2023-05-23T19:53:07.655Z,98151.63
2023-05-23T19:55:34.925Z,98142.56
2023-05-23T19:58:02.315Z,98144.41
2023-05-23T20:00:28.955Z,98145.44
2023-05-23T20:02:59.800Z,98169.72
2023-05-23T20:05:26.513Z,98166.03
2023-05-23T20:07:53.121Z,98175.09
2023-05-23T20:10:19.784Z,98178.59
2023-05-23T20:12:47.910Z,98181.06
2023-05-23T20:15:15.896Z,98184.38
2023-05-23T20:17:44.417Z,98184.56
2023-05-23T20:20:13.919Z,98172.66
2023-05-23T20:22:43.170Z,98159.22
2023-05-23T20:25:13.343Z,98164.38
2023-05-23T20:27:43.354Z,98169.94
2023-05-23T20:30:13.754Z,98179.03
2023-05-23T20:32:45.504Z,98179.84
2023-05-23T20:35:12.051Z,98183.53
2023-05-23T20:37:42.946Z,98182.72
2023-05-23T20:40:13.811Z,98165.84
2023-05-23T20:42:45.241Z,98164.41
2023-05-23T20:45:15.657Z,98174.50
2023-05-23T20:47:42.794Z,98167.47
2023-05-23T20:50:14.673Z,98170.34
2023-05-23T20:52:44.241Z,98163.94
2023-05-23T20:55:12.087Z,98158.16
2023-05-23T20:57:38.631Z,98151.72
2023-05-23T21:00:24.346Z,98169.22
2023-05-23T21:02:51.003Z,98175.19
2023-05-23T21:05:17.691Z,98172.69
2023-05-23T21:07:44.309Z,98164.44
2023-05-23T21:10:13.988Z,98163.78
2023-05-23T21:12:46.918Z,98172.00
2023-05-23T21:15:13.449Z,98177.38
2023-05-23T21:17:42.940Z,98177.78
2023-05-23T21:20:12.767Z,98183.91
2023-05-23T21:22:39.652Z,98183.91
2023-05-23T21:25:06.421Z,98178.31
2023-05-23T21:27:34.198Z,98183.09
2023-05-23T21:30:00.787Z,98183.72
2023-05-23T21:32:27.465Z,98178.81
2023-05-23T21:34:54.084Z,98175.63
2023-05-23T21:37:20.683Z,98182.03
2023-05-23T21:39:51.973Z,98177.69
2023-05-23T21:42:20.858Z,98182.59
2023-05-23T21:44:47.766Z,98180.94
2023-05-23T21:47:14.336Z,98185.03
2023-05-23T21:49:43.234Z,98175.56
2023-05-23T21:52:10.023Z,98182.56
2023-05-23T21:54:36.547Z,98172.28
2023-05-23T21:57:03.173Z,98175.56
2023-05-23T21:59:29.840Z,98177.22
2023-05-23T22:01:56.499Z,98160.88
2023-05-23T22:04:23.136Z,98171.63
2023-05-23T22:06:49.658Z,98157.78
2023-05-23T22:09:16.320Z,98165.38
2023-05-23T22:11:47.401Z,98161.72
2023-05-23T22:14:16.764Z,98154.81
2023-05-23T22:16:46.395Z,98172.97
2023-05-23T22:19:15.238Z,98169.88
2023-05-23T22:21:41.779Z,98175.16
2023-05-23T22:24:08.334Z,98157.22
2023-05-23T22:26:35.003Z,98172.44
2023-05-23T22:29:02.149Z,98167.13
2023-05-23T22:31:28.958Z,98160.94
2023-05-23T22:33:55.912Z,98153.06
2023-05-23T22:36:22.494Z,98156.91
2023-05-23T22:38:49.350Z,98137.63
2023-05-23T22:41:19.054Z,98138.38
2023-05-23T22:43:48.941Z,98158.31
2023-05-23T22:46:18.634Z,98157.78
2023-05-23T22:48:47.705Z,98148.25
2023-05-23T22:51:17.165Z,98156.69
2023-05-23T22:53:43.898Z,98145.91
2023-05-23T22:56:10.671Z,98154.88
2023-05-23T22:58:37.252Z,98165.38
2023-05-23T23:01:03.803Z,98164.09
2023-05-23T23:03:30.490Z,98147.66
2023-05-23T23:05:57.562Z,98142.50
2023-05-23T23:08:24.134Z,98157.97
2023-05-23T23:10:50.668Z,98156.91
2023-05-23T23:13:20.260Z,98142.19
2023-05-23T23:15:50.259Z,98147.31
2023-05-23T23:18:19.406Z,98145.88
2023-05-23T23:20:48.043Z,98147.13
2023-05-23T23:23:14.747Z,98141.53
2023-05-23T23:25:41.290Z,98131.09
2023-05-23T23:28:07.834Z,98125.44
2023-05-23T23:30:34.332Z,98132.81
2023-05-23T23:33:00.949Z,98132.56
2023-05-23T23:35:27.584Z,98112.56
2023-05-23T23:37:54.124Z,98119.81
2023-05-23T23:40:20.644Z,98110.09
2023-05-23T23:42:49.454Z,98110.13
2023-05-23T23:45:15.996Z,98101.94
2023-05-23T23:47:42.772Z,98113.38
2023-05-23T23:50:09.553Z,98112.50
2023-05-23T23:52:39.016Z,98115.34
2023-05-23T23:55:06.489Z,98118.13
2023-05-23T23:57:33.025Z,98112.28
2023-05-23T23:59:59.570Z,98119.91
